createdAt,value
2018-03-27T00:04:13.940Z,83.5
2018-03-27T00:09:13.944Z,83.3
2018-03-27T00:14:14.071Z,83.2
2018-03-27T00:19:13.951Z,83.3
2018-03-27T00:24:13.953Z,84
2018-03-27T00:29:13.972Z,83.9
2018-03-27T00:34:13.960Z,83.9
2018-03-27T00:39:13.915Z,84
2018-03-27T00:44:13.918Z,84
2018-03-27T00:49:14.099Z,84.5
2018-03-27T00:54:13.959Z,84.2
2018-03-27T00:59:13.973Z,83.8
2018-03-27T01:04:13.992Z,84.2
2018-03-27T01:09:13.971Z,84.6
2018-03-27T01:14:14.291Z,84.6
2018-03-27T01:19:13.943Z,85
2018-03-27T01:24:14.133Z,85.6
2018-03-27T01:29:14.184Z,85.3
2018-03-27T01:34:14.011Z,85.5
2018-03-27T01:39:14.133Z,85.4
2018-03-27T01:44:14.002Z,85.2
2018-03-27T01:49:14.099Z,85.8
2018-03-27T01:54:14.000Z,84.8
2018-03-27T01:59:14.183Z,85.5
2018-03-27T02:04:14.225Z,85.1
2018-03-27T02:09:14.001Z,86
2018-03-27T02:14:14.017Z,86.2
2018-03-27T02:19:14.052Z,86.6
2018-03-27T02:24:14.085Z,86.5
2018-03-27T02:29:14.228Z,86.3
2018-03-27T02:34:14.176Z,86.4
2018-03-27T02:39:14.215Z,87.4
2018-03-27T02:44:14.123Z,87.3
2018-03-27T02:49:13.997Z,87.5
2018-03-27T02:54:14.289Z,87.7
2018-03-27T02:59:14.133Z,87
2018-03-27T03:04:13.991Z,87.3
2018-03-27T03:09:14.001Z,87.6
2018-03-27T03:14:14.000Z,87.9
2018-03-27T03:19:14.035Z,88.1
2018-03-27T03:24:14.230Z,87.4
2018-03-27T03:29:13.972Z,87.4
2018-03-27T03:34:14.019Z,87.4
2018-03-27T03:39:14.019Z,86.8
2018-03-27T03:44:14.260Z,87.2
2018-03-27T03:49:14.158Z,87.4
2018-03-27T03:54:14.022Z,87.2
2018-03-27T03:59:14.022Z,87.2
2018-03-27T04:04:14.284Z,87.2
2018-03-27T04:09:14.180Z,87.4
2018-03-27T04:14:14.047Z,87.4
2018-03-27T04:19:18.373Z,87.9
2018-03-27T04:24:23.173Z,87.8
2018-03-27T04:29:18.095Z,87.9
2018-03-27T04:34:18.103Z,87.8
2018-03-27T04:39:18.298Z,88.7
2018-03-27T04:44:18.127Z,88.5
2018-03-27T04:49:18.112Z,88.9
2018-03-27T04:54:18.119Z,88.9
2018-03-27T04:59:18.332Z,89
2018-03-27T05:04:18.142Z,89.2
2018-03-27T05:09:18.289Z,89.5
2018-03-27T05:14:18.342Z,89.1
2018-03-27T05:19:18.101Z,89.7
2018-03-27T05:24:18.302Z,89.6
2018-03-27T05:29:18.333Z,89.1
2018-03-27T05:34:18.418Z,89.6
2018-03-27T05:39:18.291Z,89.5
2018-03-27T05:49:18.373Z,90.3
2018-03-27T05:54:18.280Z,90
2018-03-27T05:59:18.348Z,90.2
2018-03-27T06:04:18.365Z,90.2
2018-03-27T06:09:18.160Z,91.8
2018-03-27T06:14:18.122Z,92.6
2018-03-27T06:19:18.170Z,92.8
2018-03-27T06:24:18.140Z,93.2
2018-03-27T06:29:18.123Z,92.5
2018-03-27T06:34:18.369Z,93
2018-03-27T06:39:18.275Z,92.5
2018-03-27T06:44:18.162Z,93.2
2018-03-27T06:49:18.334Z,92.9
2018-03-27T06:54:18.424Z,92.7
2018-03-27T06:59:18.436Z,93.2
2018-03-27T07:04:18.580Z,92.6
2018-03-27T07:09:18.483Z,93.1
2018-03-27T07:14:18.428Z,92.9
2018-03-27T07:19:18.757Z,93.6
2018-03-27T07:24:18.618Z,93.2
2018-03-27T07:29:18.476Z,92.7
2018-03-27T07:34:18.641Z,92.6
2018-03-27T07:39:18.587Z,91.6
2018-03-27T07:44:18.452Z,91.1
2018-03-27T07:49:18.472Z,90.8
2018-03-27T07:54:18.593Z,89.9
2018-03-27T07:59:18.482Z,91
2018-03-27T08:04:18.814Z,90.8
2018-03-27T08:09:18.577Z,88.5
2018-03-27T08:14:18.494Z,87.7
2018-03-27T08:19:18.664Z,86.2
2018-03-27T08:24:18.827Z,86.6
2018-03-27T08:29:18.697Z,86.2
2018-03-27T08:34:18.671Z,86.2
2018-03-27T08:39:18.702Z,85.8
2018-03-27T08:44:18.623Z,86
2018-03-27T08:49:18.505Z,85.4
2018-03-27T08:54:18.507Z,84.2
2018-03-27T08:59:18.506Z,84.8
2018-03-27T09:04:18.650Z,84.4
2018-03-27T09:09:18.506Z,85.3
2018-03-27T09:14:20.149Z,84
2018-03-27T09:19:24.938Z,84.8
2018-03-27T09:24:19.850Z,83.7
2018-03-27T09:29:20.071Z,83.5
2018-03-27T09:34:19.881Z,83.6
2018-03-27T09:39:20.013Z,83.4
2018-03-27T09:44:19.985Z,83.4
2018-03-27T09:49:20.088Z,85.1
2018-03-27T09:54:19.878Z,85.1
2018-03-27T09:59:19.885Z,87
2018-03-27T10:04:20.078Z,86.3
2018-03-27T10:09:20.240Z,87.5
2018-03-27T10:14:20.232Z,88
2018-03-27T10:19:20.463Z,89.7
2018-03-27T10:24:20.470Z,88.8
2018-03-27T10:29:20.333Z,89.4
2018-03-27T10:34:20.255Z,89.6
2018-03-27T10:39:20.447Z,89.8
2018-03-27T10:44:20.233Z,89.4
2018-03-27T10:49:20.227Z,90.2
2018-03-27T10:54:20.270Z,92
2018-03-27T10:59:20.266Z,91
2018-03-27T11:04:20.412Z,92.2
2018-03-27T11:09:20.314Z,92.1
2018-03-27T11:14:20.317Z,91.1
2018-03-27T11:19:20.501Z,91.6
2018-03-27T11:24:20.536Z,91.1
2018-03-27T11:29:20.432Z,90.7
2018-03-27T11:34:20.332Z,90
2018-03-27T11:39:20.527Z,89.9
2018-03-27T11:44:20.478Z,89.8
2018-03-27T11:49:20.440Z,89.6
2018-03-27T11:54:20.331Z,86.1
2018-03-27T11:59:20.331Z,89.1
2018-03-27T12:04:20.348Z,85.9
2018-03-27T12:09:20.340Z,87.3
2018-03-27T12:14:20.327Z,86.4
2018-03-27T12:19:20.320Z,88.6
2018-03-27T12:24:20.543Z,88.6
2018-03-27T12:29:20.370Z,88.8
2018-03-27T12:34:20.493Z,87.7
2018-03-27T12:39:20.550Z,89.1
2018-03-27T12:44:20.557Z,88.1
2018-03-27T12:49:20.352Z,87
2018-03-27T12:54:20.519Z,87.7
2018-03-27T12:59:20.396Z,87
2018-03-27T13:04:20.606Z,86.2
2018-03-27T13:09:20.501Z,84.8
2018-03-27T13:14:20.382Z,85.9
2018-03-27T13:19:20.601Z,85
2018-03-27T13:24:20.508Z,85.5
2018-03-27T13:29:20.361Z,85.1
2018-03-27T13:34:20.520Z,84.1
2018-03-27T13:39:20.576Z,84.9
2018-03-27T13:44:20.691Z,84.1
2018-03-27T13:49:20.792Z,84.4
2018-03-27T13:54:20.797Z,84.3
2018-03-27T13:59:20.568Z,84.9
2018-03-27T14:04:23.494Z,84.3
2018-03-27T14:09:28.815Z,83.8
2018-03-27T14:14:23.603Z,84.4
2018-03-27T14:19:23.508Z,84.7
2018-03-27T14:24:23.708Z,85.2
2018-03-27T14:29:23.719Z,85.1
2018-03-27T14:34:23.640Z,83.5
2018-03-27T14:39:23.707Z,84.5
2018-03-27T14:44:23.501Z,82.7
2018-03-27T14:49:23.521Z,82.3
2018-03-27T14:54:23.683Z,80.9
2018-03-27T14:59:23.722Z,80.2
2018-03-27T15:04:23.651Z,79.4
2018-03-27T15:09:23.630Z,79.2
2018-03-27T15:14:23.729Z,78.3
2018-03-27T15:19:23.704Z,77.9
2018-03-27T15:24:23.710Z,77.8
2018-03-27T15:29:23.723Z,77.8
2018-03-27T15:34:24.147Z,76.4
2018-03-27T15:44:23.738Z,73.5
2018-03-27T15:49:23.742Z,73.9
2018-03-27T15:54:23.747Z,74.7
2018-03-27T15:59:24.826Z,74.9
2018-03-27T16:04:23.775Z,74
2018-03-27T16:09:23.745Z,73.3
2018-03-27T16:14:23.736Z,73.8
2018-03-27T16:19:23.740Z,74.1
2018-03-27T16:24:23.743Z,74.3
2018-03-27T16:29:23.761Z,74.7
2018-03-27T16:34:23.716Z,75
2018-03-27T16:39:23.722Z,75.2
2018-03-27T16:44:23.736Z,76
2018-03-27T16:49:23.760Z,75.4
2018-03-27T16:54:23.862Z,75.6
2018-03-27T16:59:23.912Z,75.8
2018-03-27T17:04:23.938Z,76
2018-03-27T17:09:24.000Z,76.8
2018-03-27T17:14:23.734Z,76.5
2018-03-27T17:19:23.953Z,78.1
2018-03-27T17:24:23.736Z,79.1
2018-03-27T17:29:23.925Z,79.9
2018-03-27T17:34:23.947Z,81.4
2018-03-27T17:39:24.014Z,81.7
2018-03-27T17:44:23.800Z,82.8
2018-03-27T17:49:23.941Z,83.3
2018-03-27T17:54:23.791Z,84
2018-03-27T17:59:23.905Z,84.9
2018-03-27T18:04:23.774Z,85.1
2018-03-27T18:09:23.806Z,85.3
2018-03-27T18:14:23.814Z,84.9
2018-03-27T18:19:23.802Z,85.1
2018-03-27T18:24:24.242Z,86.8
2018-03-27T18:29:23.834Z,85.8
2018-03-27T18:34:23.826Z,85.7
2018-03-27T18:39:23.828Z,86.4
2018-03-27T18:44:24.036Z,86.8
2018-03-27T18:49:24.069Z,87.5
2018-03-27T18:54:23.975Z,89.2
2018-03-27T18:59:23.839Z,88.5
2018-03-27T19:04:28.946Z,88.2
2018-03-27T19:09:33.935Z,88.1
2018-03-27T19:14:28.671Z,89.1
2018-03-27T19:19:28.663Z,88
2018-03-27T19:24:28.826Z,88.4
2018-03-27T19:29:28.684Z,89.5
2018-03-27T19:34:28.677Z,90.3
2018-03-27T19:39:28.665Z,90.1
2018-03-27T19:44:28.732Z,89.2
2018-03-27T19:49:28.708Z,89.1
2018-03-27T19:54:28.708Z,89.1
2018-03-27T19:59:29.067Z,88.6
2018-03-27T20:04:29.061Z,89.9
2018-03-27T20:09:28.800Z,90
2018-03-27T20:14:28.800Z,89.1
2018-03-27T20:19:29.202Z,89.4
2018-03-27T20:24:31.447Z,89.1
2018-03-27T20:29:29.062Z,89.8
2018-03-27T20:34:29.005Z,89.7
2018-03-27T20:39:28.829Z,89.8
2018-03-27T20:44:28.825Z,89.4
2018-03-27T20:49:28.966Z,90.8
2018-03-27T20:54:28.843Z,90.4
2018-03-27T20:59:28.809Z,89.3
2018-03-27T21:04:28.830Z,89.8
2018-03-27T21:09:28.854Z,89.7
2018-03-27T21:14:28.832Z,91.3
2018-03-27T21:19:28.785Z,90.4
2018-03-27T21:24:28.822Z,90.4
2018-03-27T21:29:28.909Z,89.4
2018-03-27T21:34:28.850Z,89.9
2018-03-27T21:39:28.844Z,88.7
2018-03-27T21:44:28.858Z,89.3
2018-03-27T21:49:28.857Z,88.9
2018-03-27T21:54:28.977Z,89.7
2018-03-27T21:59:28.998Z,89.5
2018-03-27T22:04:29.035Z,89.1
2018-03-27T22:09:28.835Z,89.5
2018-03-27T22:14:29.019Z,90
2018-03-27T22:19:28.856Z,89.3
2018-03-27T22:24:28.874Z,89.4
2018-03-27T22:29:28.876Z,89.8
2018-03-27T22:34:29.055Z,90.7
2018-03-27T22:39:28.990Z,89.7
2018-03-27T22:44:29.012Z,90.9
2018-03-27T22:49:28.876Z,90.3
2018-03-27T22:54:28.994Z,89.5
2018-03-27T22:59:28.873Z,89.7
2018-03-27T23:04:28.996Z,91.4
2018-03-27T23:09:29.065Z,91
2018-03-27T23:14:29.001Z,91.1
2018-03-27T23:19:29.056Z,90.7
2018-03-27T23:24:28.902Z,91.2
2018-03-27T23:29:29.035Z,92
2018-03-27T23:34:29.036Z,91.9
2018-03-27T23:39:28.909Z,92.6
2018-03-27T23:44:29.008Z,92.1
2018-03-27T23:49:28.890Z,91.1
2018-03-27T23:54:28.917Z,90.6
2018-03-27T23:59:30.542Z,90.6
